createdAt,value
2023-04-20T00:01:04.430Z,10.75
2023-04-20T00:03:32.553Z,10.73
2023-04-20T00:06:02.720Z,10.71
2023-04-20T00:08:30.118Z,10.68
2023-04-20T00:10:57.272Z,10.67
2023-04-20T00:13:24.543Z,10.67
2023-04-20T00:15:51.621Z,10.62
2023-04-20T00:18:18.954Z,10.54
2023-04-20T00:20:45.983Z,10.44
2023-04-20T00:23:13.011Z,10.42
2023-04-20T00:25:40.574Z,10.42
2023-04-20T00:28:08.446Z,10.41
2023-04-20T00:30:35.661Z,10.42
2023-04-20T00:33:04.358Z,10.42
2023-04-20T00:35:32.217Z,10.45
2023-04-20T00:37:59.178Z,10.46
2023-04-20T00:40:26.199Z,10.43
2023-04-20T00:42:53.184Z,10.41
2023-04-20T00:52:33.677Z,10.37
2023-04-20T00:55:02.871Z,10.35
2023-04-20T00:57:31.279Z,10.39
2023-04-20T01:00:02.821Z,10.44
2023-04-20T01:02:32.010Z,10.46
2023-04-20T01:05:02.858Z,10.45
2023-04-20T01:07:32.788Z,10.45
2023-04-20T01:10:01.347Z,10.51
2023-04-20T01:12:29.987Z,10.50
2023-04-20T01:14:59.909Z,10.41
2023-04-20T01:17:28.590Z,10.51
2023-04-20T01:19:57.025Z,10.47
2023-04-20T01:22:25.637Z,10.44
2023-04-20T01:24:54.324Z,10.46
2023-04-20T01:27:22.665Z,10.42
2023-04-20T01:29:51.899Z,10.42
2023-04-20T01:32:20.253Z,10.45
2023-04-20T01:34:48.554Z,10.44
2023-04-20T01:37:17.668Z,10.44
2023-04-20T01:39:48.926Z,10.41
2023-04-20T01:42:17.332Z,10.44
2023-04-20T01:44:46.062Z,10.43
2023-04-20T01:47:14.535Z,10.46
2023-04-20T01:49:43.306Z,10.43
2023-04-20T01:52:11.821Z,10.36
2023-04-20T01:54:40.673Z,10.31
2023-04-20T01:57:08.954Z,10.35
2023-04-20T01:59:37.212Z,10.34
2023-04-20T02:02:05.659Z,10.35
2023-04-20T02:04:35.102Z,10.36
2023-04-20T02:07:03.791Z,10.35
2023-04-20T02:09:32.165Z,10.39
2023-04-20T02:12:02.080Z,10.37
2023-04-20T02:14:31.253Z,10.38
2023-04-20T02:17:01.117Z,10.29
2023-04-20T02:19:29.902Z,10.22
2023-04-20T02:21:58.330Z,10.11
2023-04-20T02:24:26.656Z,10.13
2023-04-20T02:26:57.423Z,10.19
2023-04-20T02:29:25.999Z,10.15
2023-04-20T02:31:54.418Z,10.06
2023-04-20T02:34:24.594Z,10.04
2023-04-20T02:36:53.968Z,10.04
2023-04-20T02:39:22.259Z,10.07
2023-04-20T02:41:50.972Z,10.10
2023-04-20T02:44:20.656Z,10.18
2023-04-20T02:46:49.741Z,10.19
2023-04-20T02:49:18.877Z,10.16
2023-04-20T02:51:48.034Z,10.16
2023-04-20T02:54:16.301Z,10.14
2023-04-20T02:56:45.205Z,10.13
2023-04-20T02:59:13.860Z,10.13
2023-04-20T03:02:00.673Z,10.08
2023-04-20T03:04:31.324Z,10.06
2023-04-20T03:07:05.112Z,10.08
2023-04-20T03:09:37.249Z,10.12
2023-04-20T03:12:14.731Z,10.16
2023-04-20T03:15:02.224Z,10.20
2023-04-20T03:17:58.112Z,10.20
2023-04-20T03:20:26.663Z,10.26
2023-04-20T03:22:55.426Z,10.22
2023-04-20T03:25:25.846Z,10.18
2023-04-20T03:28:01.644Z,10.20
2023-04-20T03:30:30.962Z,10.22
2023-04-20T03:33:10.011Z,10.26
2023-04-20T03:35:39.642Z,10.21
2023-04-20T03:38:08.348Z,10.21
2023-04-20T03:40:38.391Z,10.18
2023-04-20T03:43:06.852Z,10.17
2023-04-20T03:45:35.272Z,10.18
2023-04-20T03:48:04.006Z,10.18
2023-04-20T03:50:32.464Z,10.18
2023-04-20T03:53:01.216Z,10.21
2023-04-20T03:55:30.055Z,10.29
2023-04-20T03:58:01.640Z,10.34
2023-04-20T04:00:36.140Z,10.38
2023-04-20T04:03:06.398Z,10.42
2023-04-20T04:05:34.928Z,10.49
2023-04-20T04:08:04.168Z,10.47
2023-04-20T04:10:33.064Z,10.48
2023-04-20T04:13:01.551Z,10.49
2023-04-20T04:15:30.269Z,10.57
2023-04-20T04:18:09.228Z,10.61
2023-04-20T04:20:38.200Z,10.70
2023-04-20T04:23:07.980Z,10.75
2023-04-20T04:25:46.831Z,10.71
2023-04-20T04:28:16.804Z,10.71
2023-04-20T04:30:52.618Z,10.71
2023-04-20T04:33:22.109Z,10.70
2023-04-20T04:35:51.209Z,10.68
2023-04-20T04:38:21.275Z,10.59
2023-04-20T04:40:52.616Z,10.58
2023-04-20T04:43:21.226Z,10.53
2023-04-20T04:45:58.758Z,10.60
2023-04-20T04:48:28.121Z,10.66
2023-04-20T04:50:56.925Z,10.67
2023-04-20T04:53:25.496Z,10.61
2023-04-20T04:55:54.244Z,10.65
2023-04-20T04:58:22.523Z,10.57
2023-04-20T05:00:51.088Z,10.57
2023-04-20T05:03:24.110Z,10.54
2023-04-20T05:05:55.335Z,10.65
2023-04-20T05:08:24.707Z,10.74
2023-04-20T05:10:53.158Z,10.85
2023-04-20T05:13:21.457Z,10.74
2023-04-20T05:15:50.025Z,10.66
2023-04-20T05:18:18.611Z,10.63
2023-04-20T05:20:46.902Z,10.49
2023-04-20T05:23:15.658Z,10.44
2023-04-20T05:25:44.363Z,10.44
2023-04-20T05:28:16.024Z,10.48
2023-04-20T05:30:44.820Z,10.56
2023-04-20T05:33:13.554Z,10.71
2023-04-20T05:35:44.108Z,10.70
2023-04-20T05:38:12.595Z,10.76
2023-04-20T05:40:41.141Z,10.76
2023-04-20T05:43:10.136Z,10.81
2023-04-20T05:45:38.505Z,10.75
2023-04-20T05:48:07.035Z,10.71
2023-04-20T05:50:36.207Z,10.63
2023-04-20T05:53:04.681Z,10.60
2023-04-20T05:55:33.611Z,10.64
2023-04-20T05:58:02.065Z,10.71
2023-04-20T06:00:30.565Z,10.79
2023-04-20T06:02:59.384Z,10.84
2023-04-20T06:05:28.315Z,10.86
2023-04-20T06:07:57.410Z,10.75
2023-04-20T06:10:25.863Z,10.74
2023-04-20T06:12:54.519Z,10.79
2023-04-20T06:15:23.593Z,10.88
2023-04-20T06:17:52.176Z,10.94
2023-04-20T06:20:23.409Z,10.96
2023-04-20T06:22:53.694Z,11.01
2023-04-20T06:25:22.274Z,10.93
2023-04-20T06:27:52.603Z,10.92
2023-04-20T06:30:21.379Z,10.91
2023-04-20T06:32:49.977Z,10.83
2023-04-20T06:35:18.733Z,10.75
2023-04-20T06:37:47.196Z,10.65
2023-04-20T06:40:16.357Z,10.69
2023-04-20T06:42:50.797Z,10.70
2023-04-20T06:45:20.273Z,10.73
2023-04-20T06:47:49.814Z,10.72
2023-04-20T06:50:18.633Z,10.77
2023-04-20T06:52:48.828Z,10.84
2023-04-20T06:55:17.203Z,10.88
2023-04-20T06:57:48.595Z,10.95
2023-04-20T07:00:19.027Z,11.08
2023-04-20T07:02:48.984Z,11.22
2023-04-20T07:05:18.575Z,11.34
2023-04-20T07:07:47.676Z,11.37
2023-04-20T07:10:16.784Z,11.38
2023-04-20T07:12:45.261Z,11.29
2023-04-20T07:15:13.602Z,11.34
2023-04-20T07:17:42.497Z,11.34
2023-04-20T07:20:11.298Z,11.34
2023-04-20T07:22:40.613Z,11.37
2023-04-20T07:25:09.696Z,11.41
2023-04-20T07:27:39.766Z,11.49
2023-04-20T07:30:09.087Z,11.66
2023-04-20T07:32:39.155Z,11.89
2023-04-20T07:35:07.918Z,12.01
2023-04-20T07:37:36.548Z,12.00
2023-04-20T07:40:07.454Z,11.93
2023-04-20T07:42:37.490Z,11.86
2023-04-20T07:45:07.022Z,11.85
2023-04-20T07:47:35.722Z,11.78
2023-04-20T07:50:07.686Z,11.73
2023-04-20T07:52:36.531Z,11.70
2023-04-20T07:55:06.767Z,11.71
2023-04-20T07:57:35.276Z,11.68
2023-04-20T08:00:08.117Z,11.67
2023-04-20T08:02:42.235Z,11.66
2023-04-20T08:05:11.763Z,11.57
2023-04-20T08:07:40.925Z,11.62
2023-04-20T08:10:10.494Z,11.69
2023-04-20T08:12:40.785Z,11.72
2023-04-20T08:15:10.115Z,11.76
2023-04-20T08:17:38.813Z,11.84
2023-04-20T08:20:08.096Z,11.80
2023-04-20T08:22:38.741Z,11.77
2023-04-20T08:25:07.704Z,11.87
2023-04-20T08:27:37.240Z,11.97
2023-04-20T08:30:06.955Z,12.08
2023-04-20T08:32:35.927Z,12.12
2023-04-20T08:35:05.415Z,12.20
2023-04-20T08:37:34.686Z,12.26
2023-04-20T08:40:03.904Z,12.25
2023-04-20T08:42:32.842Z,12.19
2023-04-20T08:45:01.919Z,12.16
2023-04-20T08:47:30.933Z,12.23
2023-04-20T08:49:59.419Z,12.29
2023-04-20T08:52:27.995Z,12.34
2023-04-20T08:54:57.864Z,12.30
2023-04-20T08:57:26.728Z,12.28
2023-04-20T08:59:56.184Z,12.26
2023-04-20T09:02:25.029Z,12.23
2023-04-20T09:05:07.075Z,12.15
2023-04-20T09:07:37.650Z,12.03
2023-04-20T09:10:06.716Z,11.93
2023-04-20T09:12:44.001Z,11.83
2023-04-20T09:15:24.923Z,11.76
2023-04-20T09:17:54.459Z,11.70
2023-04-20T09:20:33.331Z,11.64
2023-04-20T09:23:14.918Z,11.53
2023-04-20T09:25:45.332Z,11.49
2023-04-20T09:28:14.071Z,11.42
2023-04-20T09:30:46.936Z,11.30
2023-04-20T09:33:15.596Z,11.17
2023-04-20T09:35:45.249Z,11.08
2023-04-20T09:38:17.466Z,11.06
2023-04-20T09:40:46.082Z,11.05
2023-04-20T09:43:19.321Z,11.07
2023-04-20T09:45:47.816Z,11.08
2023-04-20T09:48:19.554Z,11.06
2023-04-20T09:50:50.523Z,11.05
2023-04-20T09:53:20.997Z,11.06
2023-04-20T09:55:50.461Z,11.07
2023-04-20T09:58:20.765Z,11.04
2023-04-20T10:00:50.082Z,11.04
2023-04-20T10:03:20.244Z,11.06
2023-04-20T10:05:49.370Z,11.03
2023-04-20T10:08:18.809Z,11.04
2023-04-20T10:10:48.649Z,11.04
2023-04-20T10:13:19.885Z,11.05
2023-04-20T10:15:48.520Z,11.21
2023-04-20T10:18:24.692Z,11.30
2023-04-20T10:21:09.749Z,11.39
2023-04-20T10:23:51.848Z,11.39
2023-04-20T10:26:20.616Z,11.34
2023-04-20T10:28:49.181Z,11.35
2023-04-20T10:31:20.389Z,11.38
2023-04-20T10:33:52.663Z,11.44
2023-04-20T10:36:25.182Z,11.52
2023-04-20T10:38:53.609Z,11.58
2023-04-20T10:41:22.040Z,11.65
2023-04-20T10:43:50.526Z,11.72
2023-04-20T10:46:22.872Z,11.77
2023-04-20T10:48:59.369Z,11.86
2023-04-20T10:51:27.938Z,11.95
2023-04-20T10:54:00.211Z,12.05
2023-04-20T10:56:28.908Z,12.09
2023-04-20T10:59:07.238Z,12.05
2023-04-20T11:01:36.118Z,11.97
2023-04-20T11:04:04.759Z,11.84
2023-04-20T11:06:34.678Z,11.65
2023-04-20T11:09:03.350Z,11.52
2023-04-20T11:11:31.997Z,11.40
2023-04-20T11:14:10.329Z,11.31
2023-04-20T11:19:10.503Z,11.28
2023-04-20T11:21:40.320Z,11.29
2023-04-20T11:24:23.001Z,11.34
2023-04-20T11:26:51.760Z,11.33
2023-04-20T11:29:30.348Z,11.36
2023-04-20T11:31:59.398Z,11.34
2023-04-20T11:34:27.925Z,11.31
2023-04-20T11:36:59.471Z,11.25
2023-04-20T11:39:28.828Z,11.25
2023-04-20T11:41:57.567Z,11.23
2023-04-20T11:44:27.668Z,11.20
2023-04-20T11:46:59.989Z,11.14
2023-04-20T11:49:29.139Z,11.07
2023-04-20T11:51:57.879Z,11.05
2023-04-20T11:54:27.546Z,11.06
2023-04-20T11:56:56.767Z,11.07
2023-04-20T11:59:25.685Z,11.00
2023-04-20T12:01:54.368Z,10.93
2023-04-20T12:04:23.065Z,10.84
2023-04-20T12:06:51.910Z,10.79
2023-04-20T12:09:20.646Z,10.73
2023-04-20T12:11:49.317Z,10.74
2023-04-20T12:14:17.723Z,10.75
2023-04-20T12:16:47.271Z,10.80
2023-04-20T12:19:16.573Z,10.88
2023-04-20T12:21:47.577Z,10.96
2023-04-20T12:24:15.972Z,11.07
2023-04-20T12:26:44.348Z,11.18
2023-04-20T12:29:13.047Z,11.25
2023-04-20T12:31:41.559Z,11.34
2023-04-20T12:34:09.984Z,11.34
2023-04-20T12:36:38.616Z,11.37
2023-04-20T12:39:07.360Z,11.43
2023-04-20T12:41:36.546Z,11.41
2023-04-20T12:44:07.613Z,11.39
2023-04-20T12:46:37.232Z,11.36
2023-04-20T12:49:05.856Z,11.32
2023-04-20T12:51:34.746Z,11.28
2023-04-20T12:54:03.334Z,11.28
2023-04-20T12:56:32.582Z,11.33
2023-04-20T12:59:00.970Z,11.34
2023-04-20T13:01:29.648Z,11.36
2023-04-20T13:03:58.296Z,11.35
2023-04-20T13:06:26.999Z,11.36
2023-04-20T13:08:55.535Z,11.36
2023-04-20T13:11:26.700Z,11.28
2023-04-20T13:13:58.295Z,11.24
2023-04-20T13:16:27.034Z,11.13
2023-04-20T13:18:55.506Z,11.06
2023-04-20T13:21:23.891Z,11.00
2023-04-20T13:23:54.037Z,10.97
2023-04-20T13:26:23.432Z,10.98
2023-04-20T13:28:51.871Z,11.05
2023-04-20T13:31:20.414Z,11.01
2023-04-20T13:33:49.345Z,10.94
2023-04-20T13:36:17.805Z,10.93
2023-04-20T13:38:46.811Z,10.89
2023-04-20T13:41:16.206Z,10.87
2023-04-20T13:43:44.800Z,10.87
2023-04-20T13:46:13.272Z,10.92
2023-04-20T13:48:41.748Z,10.99
2023-04-20T13:51:10.488Z,11.07
2023-04-20T13:53:39.775Z,11.11
2023-04-20T13:56:08.378Z,11.13
2023-04-20T13:58:37.863Z,11.14
2023-04-20T14:01:13.112Z,11.16
2023-04-20T14:03:42.753Z,11.16
2023-04-20T14:06:11.158Z,11.13
2023-04-20T14:08:40.466Z,11.13
2023-04-20T14:11:09.081Z,11.16
2023-04-20T14:13:38.498Z,11.18
2023-04-20T14:16:11.267Z,11.16
2023-04-20T14:18:39.708Z,11.15
2023-04-20T14:21:08.347Z,11.16
2023-04-20T14:23:36.795Z,11.15
2023-04-20T14:26:05.491Z,11.15
2023-04-20T14:28:34.073Z,11.12
2023-04-20T14:31:03.638Z,11.11
2023-04-20T14:33:32.492Z,11.08
2023-04-20T14:36:01.042Z,11.07
2023-04-20T14:38:29.760Z,11.09
2023-04-20T14:41:19.153Z,11.08
2023-04-20T14:43:47.493Z,11.02
2023-04-20T14:46:16.356Z,10.99
2023-04-20T14:48:46.630Z,10.94
2023-04-20T14:51:16.418Z,10.86
2023-04-20T14:53:44.772Z,10.82
2023-04-20T14:56:13.495Z,10.81
2023-04-20T14:58:42.663Z,10.82
2023-04-20T15:01:11.591Z,10.81
2023-04-20T15:03:40.197Z,10.79
2023-04-20T15:06:08.994Z,10.71
2023-04-20T15:08:37.492Z,10.61
2023-04-20T15:11:05.998Z,10.54
2023-04-20T15:13:34.683Z,10.47
2023-04-20T15:16:03.131Z,10.46
2023-04-20T15:18:32.185Z,10.44
2023-04-20T15:21:00.812Z,10.41
2023-04-20T15:23:29.719Z,10.41
2023-04-20T15:25:58.136Z,10.40
2023-04-20T15:28:26.824Z,10.39
2023-04-20T15:30:55.249Z,10.35
2023-04-20T15:33:23.951Z,10.38
2023-04-20T15:35:52.522Z,10.35
2023-04-20T15:38:21.821Z,10.35
2023-04-20T15:40:51.854Z,10.37
2023-04-20T15:43:20.993Z,10.40
2023-04-20T15:45:50.116Z,10.39
2023-04-20T15:48:18.484Z,10.39
2023-04-20T15:50:51.928Z,10.36
2023-04-20T15:53:22.481Z,10.34
2023-04-20T15:55:51.768Z,10.36
2023-04-20T15:58:20.386Z,10.35
2023-04-20T16:00:48.753Z,10.43
2023-04-20T16:03:18.259Z,10.41
2023-04-20T16:05:46.989Z,10.41
2023-04-20T16:08:19.110Z,10.41
2023-04-20T16:10:48.935Z,10.40
2023-04-20T16:13:17.527Z,10.42
2023-04-20T16:15:46.166Z,10.37
2023-04-20T16:18:14.958Z,10.44
2023-04-20T16:20:43.880Z,10.45
2023-04-20T16:23:13.470Z,10.41
2023-04-20T16:25:42.879Z,10.42
2023-04-20T16:28:12.276Z,10.42
2023-04-20T16:30:41.105Z,10.35
2023-04-20T16:33:09.811Z,10.33
2023-04-20T16:35:39.341Z,10.34
2023-04-20T16:38:10.783Z,10.33
2023-04-20T16:40:43.060Z,10.28
2023-04-20T16:43:11.987Z,10.27
2023-04-20T16:45:40.387Z,10.24
2023-04-20T16:48:09.001Z,10.19
2023-04-20T16:50:40.243Z,10.21
2023-04-20T16:53:10.512Z,10.20
2023-04-20T16:55:39.046Z,10.18
2023-04-20T16:58:07.441Z,10.14
2023-04-20T17:00:36.330Z,10.11
2023-04-20T17:03:10.786Z,10.10
2023-04-20T17:05:41.657Z,10.09
2023-04-20T17:08:10.911Z,10.07
2023-04-20T17:10:39.620Z,10.08
2023-04-20T17:13:08.638Z,10.07
2023-04-20T17:15:37.482Z,10.06
2023-04-20T17:18:07.146Z,10.05
2023-04-20T17:20:35.665Z,10.06
2023-04-20T17:23:06.437Z,10.06
2023-04-20T17:25:35.577Z,10.07
2023-04-20T17:28:04.261Z,10.08
2023-04-20T17:30:33.280Z,10.08
2023-04-20T17:33:02.159Z,10.06
2023-04-20T17:35:55.754Z,10.07
2023-04-20T17:38:45.875Z,10.08
2023-04-20T17:41:18.062Z,10.08
2023-04-20T17:43:48.084Z,10.06
2023-04-20T17:46:17.140Z,10.03
2023-04-20T17:48:47.539Z,10.06
2023-04-20T17:51:19.144Z,10.06
2023-04-20T17:53:51.911Z,10.14
2023-04-20T17:56:21.088Z,10.10
2023-04-20T17:58:50.354Z,10.08
2023-04-20T18:01:19.317Z,10.10
2023-04-20T18:03:49.723Z,10.09
2023-04-20T18:06:20.702Z,10.05
2023-04-20T18:08:50.788Z,10.06
2023-04-20T18:11:20.479Z,10.12
2023-04-20T18:13:53.212Z,10.18
2023-04-20T18:16:23.339Z,10.08
2023-04-20T18:18:53.257Z,10.06
2023-04-20T18:21:25.498Z,10.06
2023-04-20T18:23:55.905Z,10.02
2023-04-20T18:26:27.670Z,10.01
2023-04-20T18:28:56.504Z,9.98
2023-04-20T18:31:27.985Z,9.92
2023-04-20T18:33:58.564Z,9.89
2023-04-20T18:36:32.924Z,9.85
2023-04-20T18:39:06.208Z,9.79
2023-04-20T18:41:35.518Z,9.77
2023-04-20T18:44:05.758Z,9.76
2023-04-20T18:46:35.471Z,9.72
2023-04-20T18:49:07.323Z,9.73
2023-04-20T18:51:36.570Z,9.68
2023-04-20T18:54:05.178Z,9.59
2023-04-20T18:56:35.072Z,9.66
2023-04-20T18:59:08.675Z,9.78
2023-04-20T19:01:41.664Z,9.72
2023-04-20T19:04:13.138Z,9.72
2023-04-20T19:06:42.568Z,9.74
2023-04-20T19:09:11.748Z,9.78
2023-04-20T19:11:45.504Z,9.78
2023-04-20T19:14:17.463Z,9.79
2023-04-20T19:16:46.453Z,9.84
2023-04-20T19:19:14.956Z,9.85
2023-04-20T19:21:43.654Z,9.84
2023-04-20T19:24:15.798Z,9.82
2023-04-20T19:26:44.391Z,9.84
2023-04-20T19:29:14.416Z,9.86
2023-04-20T19:31:46.483Z,9.94
2023-04-20T19:34:18.725Z,9.98
2023-04-20T19:36:50.798Z,9.86
2023-04-20T19:39:21.228Z,9.86
2023-04-20T19:42:23.773Z,9.84
2023-04-20T19:44:54.045Z,9.80
2023-04-20T19:47:24.045Z,9.75
2023-04-20T19:49:52.686Z,9.70
2023-04-20T19:52:25.902Z,9.68
2023-04-20T19:54:57.370Z,9.63
2023-04-20T19:57:29.425Z,9.66
2023-04-20T20:00:35.088Z,9.63
2023-04-20T20:03:04.237Z,9.60
2023-04-20T20:05:57.152Z,9.51
2023-04-20T20:08:28.934Z,9.51
2023-04-20T20:10:59.179Z,9.56
2023-04-20T20:13:27.826Z,9.56
2023-04-20T20:16:18.116Z,9.58
2023-04-20T20:18:48.143Z,9.60
2023-04-20T20:21:18.536Z,9.58
2023-04-20T20:23:48.321Z,9.58
2023-04-20T20:26:18.233Z,9.61
2023-04-20T20:28:51.417Z,9.63
2023-04-20T20:31:23.122Z,9.67
2023-04-20T20:33:52.428Z,9.67
2023-04-20T20:36:21.482Z,9.59
2023-04-20T20:38:52.152Z,9.62
2023-04-20T20:41:23.507Z,9.62
2023-04-20T20:43:55.938Z,9.67
2023-04-20T20:46:24.742Z,9.71
2023-04-20T20:48:53.731Z,9.64
2023-04-20T20:51:23.431Z,9.61
2023-04-20T20:53:53.171Z,9.64
2023-04-20T20:56:22.247Z,9.58
2023-04-20T20:58:54.535Z,9.49
2023-04-20T21:01:23.296Z,9.44
2023-04-20T21:03:52.536Z,9.44
2023-04-20T21:06:21.065Z,9.40
2023-04-20T21:08:49.301Z,9.38
2023-04-20T21:11:17.839Z,9.34
2023-04-20T21:13:46.525Z,9.36
2023-04-20T21:16:15.166Z,9.33
2023-04-20T21:18:43.727Z,9.34
2023-04-20T21:21:15.939Z,9.32
2023-04-20T21:23:44.498Z,9.29
2023-04-20T21:26:13.342Z,9.28
2023-04-20T21:28:42.249Z,9.28
2023-04-20T21:31:11.013Z,9.29
2023-04-20T21:33:39.802Z,9.29
2023-04-20T21:36:08.958Z,9.31
2023-04-20T21:38:37.972Z,9.33
2023-04-20T21:41:06.407Z,9.38
2023-04-20T21:43:34.827Z,9.38
2023-04-20T21:46:04.140Z,9.39
2023-04-20T21:48:33.618Z,9.39
2023-04-20T21:51:02.106Z,9.41
2023-04-20T21:53:30.694Z,9.42
2023-04-20T21:55:59.107Z,9.42
2023-04-20T21:58:28.463Z,9.44
2023-04-20T22:00:57.099Z,9.47
2023-04-20T22:03:26.517Z,9.48
2023-04-20T22:05:56.269Z,9.48
2023-04-20T22:08:24.650Z,9.53
2023-04-20T22:10:53.207Z,9.51
2023-04-20T22:13:22.543Z,9.47
2023-04-20T22:15:52.137Z,9.45
2023-04-20T22:18:22.356Z,9.44
2023-04-20T22:20:51.679Z,9.43
2023-04-20T22:23:20.580Z,9.41
2023-04-20T22:25:49.237Z,9.45
2023-04-20T22:28:18.103Z,9.43
2023-04-20T22:30:47.292Z,9.47
2023-04-20T22:33:16.561Z,9.49
2023-04-20T22:35:45.424Z,9.48
2023-04-20T22:38:14.067Z,9.48
2023-04-20T22:40:42.654Z,9.53
2023-04-20T22:43:11.593Z,9.52
2023-04-20T22:45:40.342Z,9.55
2023-04-20T22:48:09.425Z,9.62
2023-04-20T22:50:38.003Z,9.68
2023-04-20T22:53:06.405Z,9.71
2023-04-20T22:55:34.784Z,9.66
2023-04-20T22:58:03.486Z,9.71
2023-04-20T23:00:31.882Z,9.77
2023-04-20T23:03:02.193Z,9.75
2023-04-20T23:05:31.010Z,9.73
2023-04-20T23:08:00.776Z,9.71
2023-04-20T23:10:29.811Z,9.69
2023-04-20T23:12:58.625Z,9.67
2023-04-20T23:15:27.100Z,9.67
2023-04-20T23:17:57.505Z,9.72
2023-04-20T23:20:27.264Z,9.74
2023-04-20T23:22:55.946Z,9.73
2023-04-20T23:25:24.654Z,9.72
2023-04-20T23:27:54.859Z,9.73
2023-04-20T23:30:23.662Z,9.74
2023-04-20T23:32:51.998Z,9.76
2023-04-20T23:35:20.683Z,9.79
2023-04-20T23:37:49.481Z,9.81
2023-04-20T23:40:17.924Z,9.82
2023-04-20T23:42:46.362Z,9.85
2023-04-20T23:45:14.733Z,9.86
2023-04-20T23:47:43.276Z,9.83
2023-04-20T23:50:11.792Z,9.76
2023-04-20T23:52:41.971Z,9.76
2023-04-20T23:55:11.450Z,9.80
2023-04-20T23:57:41.604Z,9.74
